sensor_id;sensor_type;location;lat;lon;timestamp;temperature;humidity
13892;DHT22;7016;48.172;8.058;2022-10-31T00:00:18;11.60;99.90
13892;DHT22;7016;48.172;8.058;2022-10-31T00:02:45;11.70;99.90
13892;DHT22;7016;48.172;8.058;2022-10-31T00:05:18;11.80;99.90
13892;DHT22;7016;48.172;8.058;2022-10-31T00:07:47;11.80;99.90
13892;DHT22;7016;48.172;8.058;2022-10-31T00:10:16;11.90;99.90
13892;DHT22;7016;48.172;8.058;2022-10-31T00:12:48;12.00;99.90
13892;DHT22;7016;48.172;8.058;2022-10-31T00:15:17;11.90;99.90
13892;DHT22;7016;48.172;8.058;2022-10-31T00:17:48;11.80;99.90
13892;DHT22;7016;48.172;8.058;2022-10-31T00:20:17;11.70;99.90
13892;DHT22;7016;48.172;8.058;2022-10-31T00:22:47;11.60;99.90
13892;DHT22;7016;48.172;8.058;2022-10-31T00:25:19;11.60;99.90
13892;DHT22;7016;48.172;8.058;2022-10-31T00:27:46;11.70;99.90
13892;DHT22;7016;48.172;8.058;2022-10-31T00:30:22;11.60;99.90
13892;DHT22;7016;48.172;8.058;2022-10-31T00:32:57;11.60;99.90
13892;DHT22;7016;48.172;8.058;2022-10-31T00:35:26;11.70;99.90
13892;DHT22;7016;48.172;8.058;2022-10-31T00:37:56;11.50;99.90
13892;DHT22;7016;48.172;8.058;2022-10-31T00:40:22;11.40;99.90
13892;DHT22;7016;48.172;8.058;2022-10-31T00:42:55;11.30;99.90
13892;DHT22;7016;48.172;8.058;2022-10-31T00:45:24;11.30;99.90
13892;DHT22;7016;48.172;8.058;2022-10-31T00:47:54;11.40;99.90
13892;DHT22;7016;48.172;8.058;2022-10-31T00:50:20;11.40;99.90
13892;DHT22;7016;48.172;8.058;2022-10-31T00:52:50;11.40;99.90
13892;DHT22;7016;48.172;8.058;2022-10-31T00:55:19;11.40;99.90
13892;DHT22;7016;48.172;8.058;2022-10-31T00:57:55;11.40;99.90
13892;DHT22;7016;48.172;8.058;2022-10-31T01:00:24;11.30;99.90
13892;DHT22;7016;48.172;8.058;2022-10-31T01:02:53;11.40;99.90
13892;DHT22;7016;48.172;8.058;2022-10-31T01:05:23;11.40;99.90
13892;DHT22;7016;48.172;8.058;2022-10-31T01:07:59;11.50;99.90
13892;DHT22;7016;48.172;8.058;2022-10-31T01:10:31;11.60;99.90
13892;DHT22;7016;48.172;8.058;2022-10-31T01:12:57;11.40;99.90
13892;DHT22;7016;48.172;8.058;2022-10-31T01:15:24;11.30;99.90
13892;DHT22;7016;48.172;8.058;2022-10-31T01:17:56;11.40;99.90
13892;DHT22;7016;48.172;8.058;2022-10-31T01:20:32;11.20;99.90
13892;DHT22;7016;48.172;8.058;2022-10-31T01:23:05;11.20;99.90
13892;DHT22;7016;48.172;8.058;2022-10-31T01:25:39;11.30;99.90
13892;DHT22;7016;48.172;8.058;2022-10-31T01:28:15;11.50;99.90
13892;DHT22;7016;48.172;8.058;2022-10-31T01:30:42;11.60;99.90
13892;DHT22;7016;48.172;8.058;2022-10-31T01:33:14;11.70;99.90
13892;DHT22;7016;48.172;8.058;2022-10-31T01:35:50;11.60;99.90
13892;DHT22;7016;48.172;8.058;2022-10-31T01:38:20;11.50;99.90
13892;DHT22;7016;48.172;8.058;2022-10-31T01:40:52;11.40;99.90
13892;DHT22;7016;48.172;8.058;2022-10-31T01:43:26;11.40;99.90
13892;DHT22;7016;48.172;8.058;2022-10-31T01:45:57;11.40;99.90
13892;DHT22;7016;48.172;8.058;2022-10-31T01:48:30;11.30;99.90
13892;DHT22;7016;48.172;8.058;2022-10-31T01:50:59;11.50;99.90
13892;DHT22;7016;48.172;8.058;2022-10-31T01:53:31;11.50;99.90
13892;DHT22;7016;48.172;8.058;2022-10-31T01:55:59;11.50;99.90
13892;DHT22;7016;48.172;8.058;2022-10-31T01:58:28;11.30;99.90
13892;DHT22;7016;48.172;8.058;2022-10-31T02:01:01;11.20;99.90
13892;DHT22;7016;48.172;8.058;2022-10-31T02:03:35;11.20;99.90
13892;DHT22;7016;48.172;8.058;2022-10-31T02:06:16;11.10;99.90
13892;DHT22;7016;48.172;8.058;2022-10-31T02:08:53;11.10;99.90
13892;DHT22;7016;48.172;8.058;2022-10-31T02:11:27;11.20;99.90
13892;DHT22;7016;48.172;8.058;2022-10-31T02:14:05;11.20;99.90
13892;DHT22;7016;48.172;8.058;2022-10-31T02:16:34;11.10;99.90
13892;DHT22;7016;48.172;8.058;2022-10-31T02:19:05;11.10;99.90
13892;DHT22;7016;48.172;8.058;2022-10-31T02:22:06;11.00;99.90
13892;DHT22;7016;48.172;8.058;2022-10-31T02:24:57;11.00;99.90
13892;DHT22;7016;48.172;8.058;2022-10-31T02:30:27;11.20;99.90
13892;DHT22;7016;48.172;8.058;2022-10-31T02:33:06;11.10;99.90
13892;DHT22;7016;48.172;8.058;2022-10-31T02:41:16;11.10;99.90
13892;DHT22;7016;48.172;8.058;2022-10-31T02:46:19;11.20;99.90
13892;DHT22;7016;48.172;8.058;2022-10-31T02:48:48;11.20;99.90
13892;DHT22;7016;48.172;8.058;2022-10-31T02:51:25;11.30;99.90
13892;DHT22;7016;48.172;8.058;2022-10-31T02:53:59;11.30;99.90
13892;DHT22;7016;48.172;8.058;2022-10-31T02:56:29;11.30;99.90
13892;DHT22;7016;48.172;8.058;2022-10-31T02:59:03;11.10;99.90
13892;DHT22;7016;48.172;8.058;2022-10-31T03:04:48;10.90;99.90
13892;DHT22;7016;48.172;8.058;2022-10-31T03:07:38;10.90;99.90
13892;DHT22;7016;48.172;8.058;2022-10-31T03:15:32;11.00;99.90
13892;DHT22;7016;48.172;8.058;2022-10-31T03:18:23;11.00;99.90
13892;DHT22;7016;48.172;8.058;2022-10-31T03:21:25;11.00;99.90
13892;DHT22;7016;48.172;8.058;2022-10-31T03:24:00;10.90;99.90
13892;DHT22;7016;48.172;8.058;2022-10-31T03:26:33;10.90;99.90
13892;DHT22;7016;48.172;8.058;2022-10-31T03:29:10;10.90;99.90
13892;DHT22;7016;48.172;8.058;2022-10-31T03:34:18;10.90;99.90
13892;DHT22;7016;48.172;8.058;2022-10-31T03:36:49;10.90;99.90
13892;DHT22;7016;48.172;8.058;2022-10-31T03:39:23;11.00;99.90
13892;DHT22;7016;48.172;8.058;2022-10-31T03:42:07;11.00;99.90
13892;DHT22;7016;48.172;8.058;2022-10-31T03:44:45;11.00;99.90
13892;DHT22;7016;48.172;8.058;2022-10-31T03:47:15;10.90;99.90
13892;DHT22;7016;48.172;8.058;2022-10-31T03:49:45;11.00;99.90
13892;DHT22;7016;48.172;8.058;2022-10-31T03:54:59;11.00;99.90
13892;DHT22;7016;48.172;8.058;2022-10-31T03:57:41;11.00;99.90
13892;DHT22;7016;48.172;8.058;2022-10-31T04:00:12;10.90;99.90
13892;DHT22;7016;48.172;8.058;2022-10-31T04:02:45;11.00;99.90
13892;DHT22;7016;48.172;8.058;2022-10-31T04:05:23;11.00;99.90
13892;DHT22;7016;48.172;8.058;2022-10-31T04:07:53;11.00;99.90
13892;DHT22;7016;48.172;8.058;2022-10-31T04:10:28;11.00;99.90
13892;DHT22;7016;48.172;8.058;2022-10-31T04:13:01;10.90;99.90
13892;DHT22;7016;48.172;8.058;2022-10-31T04:15:35;10.80;99.90
13892;DHT22;7016;48.172;8.058;2022-10-31T04:18:09;10.90;99.90
13892;DHT22;7016;48.172;8.058;2022-10-31T04:20:41;10.90;99.90
13892;DHT22;7016;48.172;8.058;2022-10-31T04:23:19;11.00;99.90
13892;DHT22;7016;48.172;8.058;2022-10-31T04:25:57;11.00;99.90
13892;DHT22;7016;48.172;8.058;2022-10-31T04:28:28;11.00;99.90
13892;DHT22;7016;48.172;8.058;2022-10-31T04:31:00;10.90;99.90
13892;DHT22;7016;48.172;8.058;2022-10-31T04:33:29;10.80;99.90
13892;DHT22;7016;48.172;8.058;2022-10-31T04:36:00;10.90;99.90
13892;DHT22;7016;48.172;8.058;2022-10-31T04:38:32;10.90;99.90
13892;DHT22;7016;48.172;8.058;2022-10-31T04:41:01;10.90;99.90
13892;DHT22;7016;48.172;8.058;2022-10-31T04:43:28;11.00;99.90
13892;DHT22;7016;48.172;8.058;2022-10-31T04:45:57;10.90;99.90
13892;DHT22;7016;48.172;8.058;2022-10-31T04:48:24;10.90;99.90
13892;DHT22;7016;48.172;8.058;2022-10-31T04:50:51;10.70;99.90
13892;DHT22;7016;48.172;8.058;2022-10-31T04:53:21;10.60;99.90
13892;DHT22;7016;48.172;8.058;2022-10-31T04:55:53;10.60;99.90
13892;DHT22;7016;48.172;8.058;2022-10-31T04:58:22;10.50;99.90
13892;DHT22;7016;48.172;8.058;2022-10-31T05:00:54;10.60;99.90
13892;DHT22;7016;48.172;8.058;2022-10-31T05:03:28;10.70;99.90
13892;DHT22;7016;48.172;8.058;2022-10-31T05:05:57;10.70;99.90
13892;DHT22;7016;48.172;8.058;2022-10-31T05:08:30;10.70;99.90
13892;DHT22;7016;48.172;8.058;2022-10-31T05:11:05;10.70;99.90
13892;DHT22;7016;48.172;8.058;2022-10-31T05:13:37;10.80;99.90
13892;DHT22;7016;48.172;8.058;2022-10-31T05:16:12;10.70;99.90
13892;DHT22;7016;48.172;8.058;2022-10-31T05:18:51;10.60;99.90
13892;DHT22;7016;48.172;8.058;2022-10-31T05:21:25;10.70;99.90
13892;DHT22;7016;48.172;8.058;2022-10-31T05:23:57;10.70;99.90
13892;DHT22;7016;48.172;8.058;2022-10-31T05:26:26;10.60;99.90
13892;DHT22;7016;48.172;8.058;2022-10-31T05:28:55;10.70;99.90
13892;DHT22;7016;48.172;8.058;2022-10-31T05:31:27;10.80;99.90
13892;DHT22;7016;48.172;8.058;2022-10-31T05:33:56;10.90;99.90
13892;DHT22;7016;48.172;8.058;2022-10-31T05:36:28;10.70;99.90
13892;DHT22;7016;48.172;8.058;2022-10-31T05:39:01;10.60;99.90
13892;DHT22;7016;48.172;8.058;2022-10-31T05:41:33;10.50;99.90
13892;DHT22;7016;48.172;8.058;2022-10-31T05:44:00;10.50;99.90
13892;DHT22;7016;48.172;8.058;2022-10-31T05:46:31;10.60;99.90
13892;DHT22;7016;48.172;8.058;2022-10-31T05:49:05;10.60;99.90
13892;DHT22;7016;48.172;8.058;2022-10-31T05:51:35;10.60;99.90
13892;DHT22;7016;48.172;8.058;2022-10-31T05:54:04;10.40;99.90
13892;DHT22;7016;48.172;8.058;2022-10-31T05:56:39;10.50;99.90
13892;DHT22;7016;48.172;8.058;2022-10-31T05:59:08;10.60;99.90
13892;DHT22;7016;48.172;8.058;2022-10-31T06:01:40;10.70;99.90
13892;DHT22;7016;48.172;8.058;2022-10-31T06:04:09;10.60;99.90
13892;DHT22;7016;48.172;8.058;2022-10-31T06:06:41;10.70;99.90
13892;DHT22;7016;48.172;8.058;2022-10-31T06:09:14;10.60;99.90
13892;DHT22;7016;48.172;8.058;2022-10-31T06:11:41;10.60;99.90
13892;DHT22;7016;48.172;8.058;2022-10-31T06:14:08;10.70;99.90
13892;DHT22;7016;48.172;8.058;2022-10-31T06:16:34;10.70;99.90
13892;DHT22;7016;48.172;8.058;2022-10-31T06:19:06;10.80;99.90
13892;DHT22;7016;48.172;8.058;2022-10-31T06:21:38;10.90;99.90
13892;DHT22;7016;48.172;8.058;2022-10-31T06:24:07;10.80;99.90
13892;DHT22;7016;48.172;8.058;2022-10-31T06:26:38;11.00;99.90
13892;DHT22;7016;48.172;8.058;2022-10-31T06:29:13;10.90;99.90
13892;DHT22;7016;48.172;8.058;2022-10-31T06:31:42;10.90;99.90
13892;DHT22;7016;48.172;8.058;2022-10-31T06:34:14;11.00;99.90
13892;DHT22;7016;48.172;8.058;2022-10-31T06:36:43;10.80;99.90
13892;DHT22;7016;48.172;8.058;2022-10-31T06:39:12;10.80;99.90
13892;DHT22;7016;48.172;8.058;2022-10-31T06:41:41;10.80;99.90
13892;DHT22;7016;48.172;8.058;2022-10-31T06:44:19;10.70;99.90
13892;DHT22;7016;48.172;8.058;2022-10-31T06:46:53;10.80;99.90
13892;DHT22;7016;48.172;8.058;2022-10-31T06:49:20;10.70;99.90
13892;DHT22;7016;48.172;8.058;2022-10-31T06:51:52;10.70;99.90
13892;DHT22;7016;48.172;8.058;2022-10-31T06:54:19;10.80;99.90
13892;DHT22;7016;48.172;8.058;2022-10-31T06:56:49;10.80;99.90
13892;DHT22;7016;48.172;8.058;2022-10-31T06:59:18;10.70;99.90
13892;DHT22;7016;48.172;8.058;2022-10-31T07:01:48;10.60;99.90
13892;DHT22;7016;48.172;8.058;2022-10-31T07:04:20;10.60;99.90
13892;DHT22;7016;48.172;8.058;2022-10-31T07:06:52;10.50;99.90
13892;DHT22;7016;48.172;8.058;2022-10-31T07:09:25;10.60;99.90
13892;DHT22;7016;48.172;8.058;2022-10-31T07:11:52;10.80;99.90
13892;DHT22;7016;48.172;8.058;2022-10-31T07:14:35;10.80;99.90
13892;DHT22;7016;48.172;8.058;2022-10-31T07:17:07;10.90;99.90
13892;DHT22;7016;48.172;8.058;2022-10-31T07:19:39;10.90;99.90
13892;DHT22;7016;48.172;8.058;2022-10-31T07:22:14;11.00;99.90
13892;DHT22;7016;48.172;8.058;2022-10-31T07:24:49;11.10;99.90
13892;DHT22;7016;48.172;8.058;2022-10-31T07:27:18;11.20;99.90
13892;DHT22;7016;48.172;8.058;2022-10-31T07:29:47;11.30;99.90
13892;DHT22;7016;48.172;8.058;2022-10-31T07:32:16;11.30;99.90
13892;DHT22;7016;48.172;8.058;2022-10-31T07:34:45;11.20;99.90
13892;DHT22;7016;48.172;8.058;2022-10-31T07:37:12;11.30;99.90
13892;DHT22;7016;48.172;8.058;2022-10-31T07:39:40;11.30;99.90
13892;DHT22;7016;48.172;8.058;2022-10-31T07:42:07;11.50;99.90
13892;DHT22;7016;48.172;8.058;2022-10-31T07:44:33;11.50;99.90
13892;DHT22;7016;48.172;8.058;2022-10-31T07:47:05;11.50;99.90
13892;DHT22;7016;48.172;8.058;2022-10-31T07:49:39;11.50;99.90
13892;DHT22;7016;48.172;8.058;2022-10-31T07:52:11;11.70;99.90
13892;DHT22;7016;48.172;8.058;2022-10-31T07:54:43;11.80;99.90
13892;DHT22;7016;48.172;8.058;2022-10-31T07:57:16;11.80;99.90
13892;DHT22;7016;48.172;8.058;2022-10-31T07:59:42;11.90;99.90
13892;DHT22;7016;48.172;8.058;2022-10-31T08:02:09;11.80;99.90
13892;DHT22;7016;48.172;8.058;2022-10-31T08:04:38;11.90;99.90
13892;DHT22;7016;48.172;8.058;2022-10-31T08:07:10;12.00;99.90
13892;DHT22;7016;48.172;8.058;2022-10-31T08:09:39;12.10;99.90
13892;DHT22;7016;48.172;8.058;2022-10-31T08:12:08;12.10;99.90
13892;DHT22;7016;48.172;8.058;2022-10-31T08:14:38;12.20;99.90
13892;DHT22;7016;48.172;8.058;2022-10-31T08:17:07;12.30;99.90
13892;DHT22;7016;48.172;8.058;2022-10-31T08:19:39;12.30;99.90
13892;DHT22;7016;48.172;8.058;2022-10-31T08:22:11;12.40;99.90
13892;DHT22;7016;48.172;8.058;2022-10-31T08:24:41;12.40;99.90
13892;DHT22;7016;48.172;8.058;2022-10-31T08:27:16;12.40;99.90
13892;DHT22;7016;48.172;8.058;2022-10-31T08:29:50;12.50;99.90
13892;DHT22;7016;48.172;8.058;2022-10-31T08:32:19;12.60;99.90
13892;DHT22;7016;48.172;8.058;2022-10-31T08:34:49;12.70;99.90
13892;DHT22;7016;48.172;8.058;2022-10-31T08:37:19;12.70;99.90
13892;DHT22;7016;48.172;8.058;2022-10-31T08:39:48;12.80;99.90
13892;DHT22;7016;48.172;8.058;2022-10-31T08:42:17;12.80;99.90
13892;DHT22;7016;48.172;8.058;2022-10-31T08:44:46;12.80;99.90
13892;DHT22;7016;48.172;8.058;2022-10-31T08:47:16;12.80;99.90
13892;DHT22;7016;48.172;8.058;2022-10-31T08:49:43;12.90;99.90
13892;DHT22;7016;48.172;8.058;2022-10-31T08:52:09;13.00;99.90
13892;DHT22;7016;48.172;8.058;2022-10-31T08:54:39;13.00;99.90
13892;DHT22;7016;48.172;8.058;2022-10-31T08:57:16;13.10;99.90
13892;DHT22;7016;48.172;8.058;2022-10-31T08:59:46;13.10;99.90
13892;DHT22;7016;48.172;8.058;2022-10-31T09:02:12;13.20;99.90
13892;DHT22;7016;48.172;8.058;2022-10-31T09:04:47;13.20;99.90
13892;DHT22;7016;48.172;8.058;2022-10-31T09:07:16;13.20;99.90
13892;DHT22;7016;48.172;8.058;2022-10-31T09:09:46;13.30;99.90
13892;DHT22;7016;48.172;8.058;2022-10-31T09:12:12;13.30;99.90
13892;DHT22;7016;48.172;8.058;2022-10-31T09:14:39;13.30;99.90
13892;DHT22;7016;48.172;8.058;2022-10-31T09:17:05;13.40;99.90
13892;DHT22;7016;48.172;8.058;2022-10-31T09:19:32;13.40;99.90
13892;DHT22;7016;48.172;8.058;2022-10-31T09:22:00;13.50;99.90
13892;DHT22;7016;48.172;8.058;2022-10-31T09:24:40;13.50;99.90
13892;DHT22;7016;48.172;8.058;2022-10-31T09:27:09;13.60;99.90
13892;DHT22;7016;48.172;8.058;2022-10-31T09:29:36;13.60;99.90
13892;DHT22;7016;48.172;8.058;2022-10-31T09:32:05;13.80;99.90
13892;DHT22;7016;48.172;8.058;2022-10-31T09:34:32;13.80;99.90
13892;DHT22;7016;48.172;8.058;2022-10-31T09:37:00;13.80;99.90
13892;DHT22;7016;48.172;8.058;2022-10-31T09:39:29;13.80;99.90
13892;DHT22;7016;48.172;8.058;2022-10-31T09:47:59;14.10;99.90
13892;DHT22;7016;48.172;8.058;2022-10-31T09:50:44;14.10;99.90
13892;DHT22;7016;48.172;8.058;2022-10-31T09:53:25;14.30;99.90
13892;DHT22;7016;48.172;8.058;2022-10-31T09:55:53;14.20;99.90
13892;DHT22;7016;48.172;8.058;2022-10-31T09:58:28;14.30;99.90
13892;DHT22;7016;48.172;8.058;2022-10-31T10:01:04;14.30;99.90
13892;DHT22;7016;48.172;8.058;2022-10-31T10:03:44;14.40;99.90
13892;DHT22;7016;48.172;8.058;2022-10-31T10:06:19;14.40;99.90
13892;DHT22;7016;48.172;8.058;2022-10-31T10:08:47;14.50;99.90
13892;DHT22;7016;48.172;8.058;2022-10-31T10:11:32;14.50;99.90
13892;DHT22;7016;48.172;8.058;2022-10-31T10:14:25;14.60;99.90
13892;DHT22;7016;48.172;8.058;2022-10-31T10:17:13;14.60;99.90
13892;DHT22;7016;48.172;8.058;2022-10-31T10:20:00;14.70;99.90
13892;DHT22;7016;48.172;8.058;2022-10-31T10:22:43;14.90;99.90
13892;DHT22;7016;48.172;8.058;2022-10-31T10:28:01;14.90;99.90
13892;DHT22;7016;48.172;8.058;2022-10-31T10:33:16;15.00;99.90
13892;DHT22;7016;48.172;8.058;2022-10-31T10:35:49;15.10;99.90
13892;DHT22;7016;48.172;8.058;2022-10-31T10:38:28;15.10;99.90
13892;DHT22;7016;48.172;8.058;2022-10-31T10:40:55;15.20;99.90
13892;DHT22;7016;48.172;8.058;2022-10-31T10:43:35;15.20;99.90
13892;DHT22;7016;48.172;8.058;2022-10-31T10:46:16;15.20;99.90
13892;DHT22;7016;48.172;8.058;2022-10-31T10:49:12;15.30;99.90
13892;DHT22;7016;48.172;8.058;2022-10-31T10:51:47;15.40;99.90
13892;DHT22;7016;48.172;8.058;2022-10-31T10:59:39;15.50;99.90
13892;DHT22;7016;48.172;8.058;2022-10-31T11:02:17;15.60;99.90
13892;DHT22;7016;48.172;8.058;2022-10-31T11:04:51;15.60;99.90
13892;DHT22;7016;48.172;8.058;2022-10-31T11:07:19;15.60;99.90
13892;DHT22;7016;48.172;8.058;2022-10-31T11:09:46;15.70;99.90
13892;DHT22;7016;48.172;8.058;2022-10-31T11:12:33;15.70;99.90
13892;DHT22;7016;48.172;8.058;2022-10-31T11:15:05;15.70;99.90
13892;DHT22;7016;48.172;8.058;2022-10-31T11:17:36;15.80;99.90
13892;DHT22;7016;48.172;8.058;2022-10-31T11:22:40;15.90;99.90
13892;DHT22;7016;48.172;8.058;2022-10-31T11:25:22;15.90;99.90
13892;DHT22;7016;48.172;8.058;2022-10-31T11:28:10;15.90;99.90
13892;DHT22;7016;48.172;8.058;2022-10-31T11:30:54;15.90;99.90
13892;DHT22;7016;48.172;8.058;2022-10-31T11:33:30;15.90;99.90
13892;DHT22;7016;48.172;8.058;2022-10-31T11:35:58;15.80;99.90
13892;DHT22;7016;48.172;8.058;2022-10-31T11:38:32;15.80;99.90
13892;DHT22;7016;48.172;8.058;2022-10-31T11:41:14;15.80;99.90
13892;DHT22;7016;48.172;8.058;2022-10-31T11:43:49;15.80;99.90
13892;DHT22;7016;48.172;8.058;2022-10-31T11:46:21;15.90;99.90
13892;DHT22;7016;48.172;8.058;2022-10-31T11:48:50;15.90;99.90
13892;DHT22;7016;48.172;8.058;2022-10-31T11:51:30;15.90;99.90
13892;DHT22;7016;48.172;8.058;2022-10-31T11:54:01;15.90;99.90
13892;DHT22;7016;48.172;8.058;2022-10-31T11:56:41;16.00;99.90
13892;DHT22;7016;48.172;8.058;2022-10-31T11:59:31;16.00;99.90
13892;DHT22;7016;48.172;8.058;2022-10-31T12:02:19;16.10;99.90
13892;DHT22;7016;48.172;8.058;2022-10-31T12:07:29;16.20;99.90
13892;DHT22;7016;48.172;8.058;2022-10-31T12:10:02;16.20;99.90
13892;DHT22;7016;48.172;8.058;2022-10-31T12:15:35;16.20;99.90
13892;DHT22;7016;48.172;8.058;2022-10-31T12:23:09;16.40;99.90
13892;DHT22;7016;48.172;8.058;2022-10-31T12:26:06;16.40;99.90
13892;DHT22;7016;48.172;8.058;2022-10-31T12:37:15;17.10;99.90
13892;DHT22;7016;48.172;8.058;2022-10-31T12:40:18;16.80;99.90
13892;DHT22;7016;48.172;8.058;2022-10-31T12:43:16;17.00;99.90
13892;DHT22;7016;48.172;8.058;2022-10-31T12:45:57;17.00;99.90
13892;DHT22;7016;48.172;8.058;2022-10-31T12:52:00;17.30;99.90
13892;DHT22;7016;48.172;8.058;2022-10-31T12:54:45;17.30;99.90
13892;DHT22;7016;48.172;8.058;2022-10-31T12:57:36;17.30;99.90
13892;DHT22;7016;48.172;8.058;2022-10-31T13:00:13;17.30;99.90
13892;DHT22;7016;48.172;8.058;2022-10-31T13:02:56;17.40;99.90
13892;DHT22;7016;48.172;8.058;2022-10-31T13:05:36;17.50;99.90
13892;DHT22;7016;48.172;8.058;2022-10-31T13:08:07;17.50;99.90
13892;DHT22;7016;48.172;8.058;2022-10-31T13:10:50;17.50;99.90
13892;DHT22;7016;48.172;8.058;2022-10-31T13:16:44;17.70;99.90
13892;DHT22;7016;48.172;8.058;2022-10-31T13:19:19;17.80;99.90
13892;DHT22;7016;48.172;8.058;2022-10-31T13:24:59;18.10;99.90
13892;DHT22;7016;48.172;8.058;2022-10-31T13:27:35;18.20;99.90
13892;DHT22;7016;48.172;8.058;2022-10-31T13:30:15;18.10;99.90
13892;DHT22;7016;48.172;8.058;2022-10-31T13:35:31;18.00;99.90
13892;DHT22;7016;48.172;8.058;2022-10-31T13:41:06;18.00;99.90
13892;DHT22;7016;48.172;8.058;2022-10-31T13:46:34;17.90;99.90
13892;DHT22;7016;48.172;8.058;2022-10-31T13:49:01;17.90;99.90
13892;DHT22;7016;48.172;8.058;2022-10-31T13:51:35;17.90;99.90
13892;DHT22;7016;48.172;8.058;2022-10-31T13:54:19;17.90;99.90
13892;DHT22;7016;48.172;8.058;2022-10-31T13:56:50;18.00;99.90
13892;DHT22;7016;48.172;8.058;2022-10-31T13:59:22;18.00;99.90
13892;DHT22;7016;48.172;8.058;2022-10-31T14:01:55;18.00;99.90
13892;DHT22;7016;48.172;8.058;2022-10-31T14:04:52;18.00;99.90
13892;DHT22;7016;48.172;8.058;2022-10-31T14:07:31;18.00;99.90
13892;DHT22;7016;48.172;8.058;2022-10-31T14:10:19;17.90;99.90
13892;DHT22;7016;48.172;8.058;2022-10-31T14:12:51;17.90;99.90
13892;DHT22;7016;48.172;8.058;2022-10-31T14:15:25;17.90;99.90
13892;DHT22;7016;48.172;8.058;2022-10-31T14:18:16;17.90;99.90
13892;DHT22;7016;48.172;8.058;2022-10-31T14:20:49;17.80;99.90
13892;DHT22;7016;48.172;8.058;2022-10-31T14:23:39;17.90;99.90
13892;DHT22;7016;48.172;8.058;2022-10-31T14:28:56;17.90;99.90
13892;DHT22;7016;48.172;8.058;2022-10-31T14:31:40;17.80;99.90
13892;DHT22;7016;48.172;8.058;2022-10-31T14:46:01;17.90;99.90
13892;DHT22;7016;48.172;8.058;2022-10-31T14:51:56;18.00;99.90
13892;DHT22;7016;48.172;8.058;2022-10-31T14:54:30;18.00;99.90
13892;DHT22;7016;48.172;8.058;2022-10-31T14:59:56;17.90;99.90
13892;DHT22;7016;48.172;8.058;2022-10-31T15:02:31;17.80;99.90
13892;DHT22;7016;48.172;8.058;2022-10-31T15:05:12;17.80;99.90
13892;DHT22;7016;48.172;8.058;2022-10-31T15:07:59;17.90;99.90
13892;DHT22;7016;48.172;8.058;2022-10-31T15:10:31;17.90;99.90
13892;DHT22;7016;48.172;8.058;2022-10-31T15:13:17;18.00;99.90
13892;DHT22;7016;48.172;8.058;2022-10-31T15:15:54;18.00;99.90
13892;DHT22;7016;48.172;8.058;2022-10-31T15:18:26;18.00;99.90
13892;DHT22;7016;48.172;8.058;2022-10-31T15:20:59;18.00;99.90
13892;DHT22;7016;48.172;8.058;2022-10-31T15:23:29;17.90;99.90
13892;DHT22;7016;48.172;8.058;2022-10-31T15:26:06;17.90;99.90
13892;DHT22;7016;48.172;8.058;2022-10-31T15:28:35;17.90;99.90
13892;DHT22;7016;48.172;8.058;2022-10-31T15:31:12;17.90;99.90
13892;DHT22;7016;48.172;8.058;2022-10-31T15:33:50;17.80;99.90
13892;DHT22;7016;48.172;8.058;2022-10-31T15:36:27;17.70;99.90
13892;DHT22;7016;48.172;8.058;2022-10-31T15:38:58;17.70;99.90
13892;DHT22;7016;48.172;8.058;2022-10-31T15:41:37;17.60;99.90
13892;DHT22;7016;48.172;8.058;2022-10-31T15:47:05;17.40;99.90
13892;DHT22;7016;48.172;8.058;2022-10-31T15:49:37;17.30;99.90
13892;DHT22;7016;48.172;8.058;2022-10-31T15:52:19;17.30;99.90
13892;DHT22;7016;48.172;8.058;2022-10-31T15:54:58;17.30;99.90
13892;DHT22;7016;48.172;8.058;2022-10-31T15:57:42;17.40;99.90
13892;DHT22;7016;48.172;8.058;2022-10-31T16:00:30;17.40;99.90
13892;DHT22;7016;48.172;8.058;2022-10-31T16:05:59;17.10;99.90
13892;DHT22;7016;48.172;8.058;2022-10-31T16:08:49;17.10;99.90
13892;DHT22;7016;48.172;8.058;2022-10-31T16:11:35;17.10;99.90
13892;DHT22;7016;48.172;8.058;2022-10-31T16:16:46;17.00;99.90
13892;DHT22;7016;48.172;8.058;2022-10-31T16:19:34;17.00;99.90
13892;DHT22;7016;48.172;8.058;2022-10-31T16:22:13;17.00;99.90
13892;DHT22;7016;48.172;8.058;2022-10-31T16:24:51;17.00;99.90
13892;DHT22;7016;48.172;8.058;2022-10-31T16:27:28;17.00;99.90
13892;DHT22;7016;48.172;8.058;2022-10-31T16:30:00;16.90;99.90
13892;DHT22;7016;48.172;8.058;2022-10-31T16:32:35;16.90;99.90
13892;DHT22;7016;48.172;8.058;2022-10-31T16:37:52;16.80;99.90
13892;DHT22;7016;48.172;8.058;2022-10-31T16:40:22;16.70;99.90
13892;DHT22;7016;48.172;8.058;2022-10-31T16:42:59;16.60;99.90
13892;DHT22;7016;48.172;8.058;2022-10-31T16:45:32;16.60;99.90
13892;DHT22;7016;48.172;8.058;2022-10-31T16:48:06;16.40;99.90
13892;DHT22;7016;48.172;8.058;2022-10-31T16:50:35;16.30;99.90
13892;DHT22;7016;48.172;8.058;2022-10-31T16:53:19;16.40;99.90
13892;DHT22;7016;48.172;8.058;2022-10-31T16:55:55;16.30;99.90
13892;DHT22;7016;48.172;8.058;2022-10-31T16:58:34;16.30;99.90
13892;DHT22;7016;48.172;8.058;2022-10-31T17:01:09;16.30;99.90
13892;DHT22;7016;48.172;8.058;2022-10-31T17:03:49;16.20;99.90
13892;DHT22;7016;48.172;8.058;2022-10-31T17:06:21;16.20;99.90
13892;DHT22;7016;48.172;8.058;2022-10-31T17:08:51;16.10;99.90
13892;DHT22;7016;48.172;8.058;2022-10-31T17:11:25;16.00;99.90
13892;DHT22;7016;48.172;8.058;2022-10-31T17:14:00;16.00;99.90
13892;DHT22;7016;48.172;8.058;2022-10-31T17:16:30;16.10;99.90
13892;DHT22;7016;48.172;8.058;2022-10-31T17:19:10;16.10;99.90
13892;DHT22;7016;48.172;8.058;2022-10-31T17:21:46;16.20;99.90
13892;DHT22;7016;48.172;8.058;2022-10-31T17:24:15;16.10;99.90
13892;DHT22;7016;48.172;8.058;2022-10-31T17:26:47;16.30;99.90
13892;DHT22;7016;48.172;8.058;2022-10-31T17:29:14;16.30;99.90
13892;DHT22;7016;48.172;8.058;2022-10-31T17:31:41;16.20;99.90
13892;DHT22;7016;48.172;8.058;2022-10-31T17:34:29;16.00;99.90
13892;DHT22;7016;48.172;8.058;2022-10-31T17:36:58;16.00;99.90
13892;DHT22;7016;48.172;8.058;2022-10-31T17:39:28;15.90;99.90
13892;DHT22;7016;48.172;8.058;2022-10-31T17:42:00;15.80;99.90
13892;DHT22;7016;48.172;8.058;2022-10-31T17:44:29;15.70;99.90
13892;DHT22;7016;48.172;8.058;2022-10-31T17:46:58;15.80;99.90
13892;DHT22;7016;48.172;8.058;2022-10-31T17:49:28;15.90;99.90
13892;DHT22;7016;48.172;8.058;2022-10-31T17:51:56;15.70;99.90
13892;DHT22;7016;48.172;8.058;2022-10-31T17:54:23;15.70;99.90
13892;DHT22;7016;48.172;8.058;2022-10-31T17:56:52;15.60;99.90
13892;DHT22;7016;48.172;8.058;2022-10-31T17:59:22;15.60;99.90
13892;DHT22;7016;48.172;8.058;2022-10-31T18:01:59;15.40;99.90
13892;DHT22;7016;48.172;8.058;2022-10-31T18:04:41;15.40;99.90
13892;DHT22;7016;48.172;8.058;2022-10-31T18:07:17;15.20;99.90
13892;DHT22;7016;48.172;8.058;2022-10-31T18:09:46;15.20;99.90
13892;DHT22;7016;48.172;8.058;2022-10-31T18:12:13;15.00;99.90
13892;DHT22;7016;48.172;8.058;2022-10-31T18:14:46;14.90;99.90
13892;DHT22;7016;48.172;8.058;2022-10-31T18:17:19;14.80;99.90
13892;DHT22;7016;48.172;8.058;2022-10-31T18:19:50;14.90;99.90